Time;durP1;ratioP1;P1;durP2;ratioP2;P2;SDS_P1;SDS_P2;PMS_P1;PMS_P2;Temp;Humidity;BMP_temperature;BMP_pressure;BME280_temperature;BME280_humidity;BME280_pressure;Samples;Min_cycle;Max_cycle;Signal;HPM_P1;HPM_P2
2022/05/02 00:01:35;;;;;;;16.05;11.50;;;10.80;26.40;;;;;;5003872;28;34545;-77
2022/05/02 00:04:00;;;;;;;15.68;11.48;;;10.70;26.50;;;;;;5005263;28;35489;-77
2022/05/02 00:06:26;;;;;;;15.43;11.43;;;10.70;26.50;;;;;;5005082;28;34070;-77
2022/05/02 00:08:52;;;;;;;19.05;10.93;;;10.80;26.60;;;;;;4989753;28;34176;-78
2022/05/02 00:11:18;;;;;;;16.10;11.50;;;10.80;26.80;;;;;;4989075;28;34513;-78
2022/05/02 00:13:44;;;;;;;17.98;12.40;;;10.80;26.70;;;;;;5006304;28;35168;-77
2022/05/02 00:16:10;;;;;;;18.00;12.32;;;10.80;26.80;;;;;;5005929;28;34211;-77
2022/05/02 00:18:36;;;;;;;15.35;11.68;;;10.80;26.80;;;;;;5006956;28;34161;-77
2022/05/02 00:21:02;;;;;;;20.00;12.65;;;10.80;26.80;;;;;;4988987;28;34135;-78
2022/05/02 00:23:29;;;;;;;18.17;12.07;;;10.80;26.90;;;;;;4988062;28;35567;-78
2022/05/02 00:25:55;;;;;;;16.95;12.23;;;10.90;27.00;;;;;;5005867;28;34062;-78
2022/05/02 00:28:21;;;;;;;16.30;11.57;;;10.80;26.80;;;;;;5005038;28;34125;-77
2022/05/02 00:30:47;;;;;;;14.85;11.57;;;10.80;26.90;;;;;;5006046;28;34626;-78
2022/05/02 00:33:13;;;;;;;16.65;12.18;;;10.90;27.10;;;;;;4988168;28;35662;-77
2022/05/02 00:35:39;;;;;;;17.30;11.82;;;10.90;27.00;;;;;;4988037;28;34121;-78
2022/05/02 00:38:05;;;;;;;14.80;11.50;;;10.90;27.10;;;;;;4988945;28;34039;-78
2022/05/02 00:40:32;;;;;;;14.98;11.93;;;10.80;27.20;;;;;;4987519;28;34238;-78
2022/05/02 00:42:58;;;;;;;17.00;12.07;;;10.80;27.20;;;;;;5004784;28;34207;-77
2022/05/02 00:45:24;;;;;;;16.55;12.13;;;10.80;27.20;;;;;;5004854;28;34181;-78
2022/05/02 00:47:52;;;;;;;16.88;11.30;;;10.80;27.20;;;;;;5006058;28;34273;-77
2022/05/02 00:50:34;;;;;;;15.75;12.02;;;10.70;27.30;;;;;;5004733;28;34673;-77
2022/05/02 00:53:01;;;;;;;19.85;12.27;;;10.80;28.70;;;;;;4989629;28;36904;-77
2022/05/02 00:55:29;;;;;;;16.20;11.80;;;10.70;27.70;;;;;;5004139;28;34088;-77
2022/05/02 00:57:56;;;;;;;16.10;11.73;;;10.70;27.70;;;;;;5006038;28;34017;-78
2022/05/02 01:00:22;;;;;;;16.33;12.02;;;10.70;27.70;;;;;;5004967;28;34512;-77
2022/05/02 01:02:47;;;;;;;16.70;11.95;;;10.60;27.60;;;;;;4987398;28;35505;-78
2022/05/02 01:05:13;;;;;;;15.18;11.73;;;10.60;27.60;;;;;;4988579;28;34260;-77
2022/05/02 01:07:39;;;;;;;15.43;11.65;;;10.50;27.70;;;;;;5005078;28;34321;-78
2022/05/02 01:10:05;;;;;;;14.45;11.80;;;10.50;28.00;;;;;;4987547;28;34105;-77
2022/05/02 01:12:31;;;;;;;15.32;11.88;;;10.40;27.90;;;;;;4987691;28;34127;-77
2022/05/02 01:14:57;;;;;;;15.75;11.95;;;10.40;27.90;;;;;;4987471;28;34153;-77
2022/05/02 01:17:24;;;;;;;15.70;11.85;;;10.40;28.00;;;;;;4987673;28;34261;-77
2022/05/02 01:19:50;;;;;;;16.90;11.80;;;10.30;28.20;;;;;;5004224;28;34064;-78
2022/05/02 01:22:17;;;;;;;15.70;11.38;;;10.30;28.30;;;;;;4969422;28;34415;-77
2022/05/02 01:24:45;;;;;;;15.60;11.60;;;10.30;28.30;;;;;;4983890;28;34142;-77
2022/05/02 01:27:12;;;;;;;16.50;11.43;;;10.20;28.50;;;;;;4984017;28;34338;-78
2022/05/02 01:29:42;;;;;;;15.75;11.20;;;10.10;28.50;;;;;;4984097;28;34056;-77
2022/05/02 01:32:10;;;;;;;15.13;11.23;;;10.00;28.60;;;;;;4967565;28;36383;-77
2022/05/02 01:34:40;;;;;;;16.60;11.05;;;10.00;28.80;;;;;;4983546;28;34432;-77
2022/05/02 01:37:08;;;;;;;15.20;11.55;;;9.90;28.80;;;;;;4984110;28;34180;-77
2022/05/02 01:39:34;;;;;;;14.02;10.05;;;9.80;29.00;;;;;;4986553;28;34012;-77
2022/05/02 01:42:01;;;;;;;16.52;11.23;;;9.70;29.30;;;;;;4971825;28;36324;-77
2022/05/02 01:44:28;;;;;;;16.33;12.27;;;9.60;29.20;;;;;;4970647;28;34233;-77
2022/05/02 01:46:54;;;;;;;14.55;11.15;;;9.50;29.40;;;;;;4987105;28;34084;-77
2022/05/02 01:49:20;;;;;;;14.10;10.48;;;9.50;29.30;;;;;;5003658;28;33987;-78
2022/05/02 01:51:47;;;;;;;14.98;10.63;;;9.40;29.30;;;;;;5003345;28;34221;-78
2022/05/02 01:54:13;;;;;;;13.82;10.27;;;9.30;29.50;;;;;;4970804;28;34737;-77
2022/05/02 01:56:39;;;;;;;15.68;10.70;;;9.20;29.60;;;;;;4986762;28;34292;-77
2022/05/02 01:59:05;;;;;;;15.20;10.95;;;9.20;29.70;;;;;;4967565;28;34508;-78
2022/05/02 02:01:32;;;;;;;15.80;11.50;;;9.10;29.60;;;;;;4985594;28;35366;-77
2022/05/02 02:05:48;;;;;;;16.02;11.00;;;9.00;29.70;;;;;;4979186;28;34363;-77
2022/05/02 02:06:49;;;;;;;14.38;10.70;;;9.00;30.20;;;;;;4989763;28;34181;-77
2022/05/02 02:09:15;;;;;;;13.38;10.25;;;8.90;29.70;;;;;;5003389;28;34258;-77
2022/05/02 02:11:41;;;;;;;14.02;10.68;;;8.80;29.70;;;;;;4986041;28;35982;-77
2022/05/02 02:14:07;;;;;;;17.20;11.82;;;8.70;29.80;;;;;;4986278;28;34118;-77
2022/05/02 02:16:33;;;;;;;15.13;10.48;;;8.70;29.80;;;;;;4993737;28;34091;-77
2022/05/02 02:18:59;;;;;;;16.10;10.82;;;8.60;29.80;;;;;;5002994;28;34051;-77
2022/05/02 02:21:25;;;;;;;15.23;11.13;;;8.60;29.80;;;;;;5002083;28;35732;-77
2022/05/02 02:23:51;;;;;;;15.52;10.57;;;8.50;29.80;;;;;;4986113;28;34165;-77
2022/05/02 02:26:17;;;;;;;15.80;10.95;;;8.50;29.90;;;;;;4993164;28;34317;-77
2022/05/02 02:28:43;;;;;;;14.55;10.63;;;8.40;30.00;;;;;;4966462;28;34272;-77
2022/05/02 02:31:09;;;;;;;14.05;10.23;;;8.40;30.20;;;;;;4950537;28;35578;-77
2022/05/02 02:33:34;;;;;;;16.15;11.68;;;8.30;30.30;;;;;;4966612;28;34453;-78
2022/05/02 02:36:00;;;;;;;17.15;11.35;;;8.30;30.40;;;;;;4982386;28;34378;-77
2022/05/02 02:38:26;;;;;;;16.02;11.15;;;8.30;30.50;;;;;;4985781;28;34578;-77
2022/05/02 02:40:52;;;;;;;16.33;11.77;;;8.30;30.40;;;;;;5002255;28;34376;-77
2022/05/02 02:43:18;;;;;;;13.90;10.65;;;8.30;30.50;;;;;;5002154;28;34391;-77
2022/05/02 02:45:44;;;;;;;18.20;11.55;;;8.30;30.60;;;;;;5003340;28;34193;-77
2022/05/02 02:48:10;;;;;;;14.95;11.20;;;8.30;30.50;;;;;;5004108;28;34015;-77
2022/05/02 02:50:36;;;;;;;16.30;11.45;;;8.30;30.60;;;;;;5001957;28;36438;-77
2022/05/02 02:53:02;;;;;;;13.68;10.82;;;8.30;30.60;;;;;;5002406;28;34189;-78
2022/05/02 02:55:28;;;;;;;14.80;9.88;;;8.30;30.60;;;;;;5001719;28;34291;-77
2022/05/02 02:57:54;;;;;;;14.55;10.27;;;8.30;30.50;;;;;;4986177;28;34119;-77
2022/05/02 03:00:21;;;;;;;15.60;11.57;;;8.30;30.60;;;;;;5004910;28;35742;-77
2022/05/02 03:02:48;;;;;;;16.70;12.07;;;8.20;30.80;;;;;;4957696;28;34337;-77
2022/05/02 03:07:57;;;;;;;14.75;10.88;;;8.20;30.80;;;;;;5006544;28;34149;-78
2022/05/02 03:10:23;;;;;;;16.52;11.13;;;8.10;30.90;;;;;;5005123;28;35942;-78
2022/05/02 03:12:49;;;;;;;14.85;10.13;;;8.10;30.80;;;;;;5005780;28;34121;-78
2022/05/02 03:15:15;;;;;;;14.13;9.55;;;8.00;30.70;;;;;;5005861;28;34145;-78
2022/05/02 03:17:41;;;;;;;14.77;10.55;;;8.00;30.90;;;;;;4989228;28;34159;-78
2022/05/02 03:20:08;;;;;;;13.90;10.48;;;7.90;30.90;;;;;;4972875;28;35394;-78
2022/05/02 03:22:34;;;;;;;14.05;10.20;;;7.90;31.10;;;;;;4988665;28;34465;-78
2022/05/02 03:25:02;;;;;;;15.20;10.25;;;7.80;31.30;;;;;;4989224;28;34353;-78
2022/05/02 03:27:28;;;;;;;14.00;9.75;;;7.70;31.20;;;;;;4989089;28;34116;-78
2022/05/02 03:29:54;;;;;;;15.75;9.50;;;7.70;31.20;;;;;;4973231;28;35451;-79
2022/05/02 03:32:21;;;;;;;12.82;9.77;;;7.60;31.20;;;;;;4989782;28;34099;-78
2022/05/02 03:34:47;;;;;;;14.10;9.48;;;7.60;31.00;;;;;;4988281;28;34238;-78
2022/05/02 03:37:12;;;;;;;17.23;10.05;;;7.50;31.10;;;;;;4988971;28;34130;-78
2022/05/02 03:39:38;;;;;;;13.82;10.32;;;7.50;31.20;;;;;;4989116;28;36235;-78
2022/05/02 03:42:05;;;;;;;14.30;9.95;;;7.40;31.20;;;;;;5005993;28;34122;-78
2022/05/02 03:44:31;;;;;;;13.60;9.95;;;7.30;31.30;;;;;;4988947;28;34223;-78
2022/05/02 03:46:56;;;;;;;14.20;10.07;;;7.30;31.30;;;;;;5005175;28;34247;-78
2022/05/02 03:49:22;;;;;;;13.88;9.45;;;7.20;31.30;;;;;;5004442;28;36581;-78
2022/05/02 03:51:48;;;;;;;11.85;9.65;;;7.20;31.40;;;;;;5005436;28;34141;-78
2022/05/02 03:54:14;;;;;;;16.42;9.65;;;7.10;31.50;;;;;;4989195;28;34135;-78
2022/05/02 03:56:40;;;;;;;14.77;10.45;;;7.00;31.50;;;;;;4988931;28;34236;-78
2022/05/02 03:59:06;;;;;;;13.55;9.70;;;7.00;31.80;;;;;;4988551;28;36783;-78
2022/05/02 04:01:36;;;;;;;13.10;10.38;;;7.00;31.90;;;;;;5005811;28;34051;-78
2022/05/02 04:04:03;;;;;;;12.90;9.90;;;6.90;31.90;;;;;;4988801;28;34310;-78
2022/05/02 04:06:29;;;;;;;15.20;9.63;;;6.90;31.80;;;;;;4989261;28;34326;-78
2022/05/02 04:08:55;;;;;;;14.30;9.95;;;6.90;31.80;;;;;;4972333;28;35502;-78
2022/05/02 04:11:21;;;;;;;14.40;10.20;;;6.90;32.50;;;;;;4987693;28;34008;-78
2022/05/02 04:13:46;;;;;;;13.38;9.07;;;6.80;31.70;;;;;;4988542;28;34227;-78
2022/05/02 04:16:13;;;;;;;13.77;9.70;;;6.80;31.80;;;;;;4988980;28;34278;-78
2022/05/02 04:18:40;;;;;;;13.50;8.88;;;6.80;31.80;;;;;;4988507;28;35909;-78
2022/05/02 04:21:06;;;;;;;11.80;9.02;;;6.80;31.80;;;;;;4968783;28;34238;-78
2022/05/02 04:23:32;;;;;;;13.07;9.40;;;6.70;31.90;;;;;;4971476;28;34152;-78
2022/05/02 04:25:58;;;;;;;14.18;9.73;;;6.70;32.00;;;;;;4972267;28;34057;-78
2022/05/02 04:28:23;;;;;;;12.23;9.27;;;6.70;32.00;;;;;;5005980;28;35040;-78
2022/05/02 04:30:49;;;;;;;12.05;8.73;;;6.70;31.90;;;;;;4988917;28;34152;-78
2022/05/02 04:33:15;;;;;;;13.00;9.15;;;6.70;32.00;;;;;;5005837;28;33995;-78
2022/05/02 04:35:41;;;;;;;13.30;9.52;;;6.70;31.90;;;;;;4988139;28;34079;-78
2022/05/02 04:38:07;;;;;;;13.52;9.63;;;6.70;31.90;;;;;;4988032;28;36587;-78
2022/05/02 04:40:33;;;;;;;13.45;9.63;;;6.70;31.90;;;;;;4987863;28;34152;-78
2022/05/02 04:42:59;;;;;;;12.52;9.60;;;6.80;31.80;;;;;;4988419;28;34438;-78
2022/05/02 04:45:25;;;;;;;15.57;10.50;;;6.80;31.70;;;;;;4987126;28;34392;-78
2022/05/02 04:47:51;;;;;;;11.75;8.63;;;6.80;31.70;;;;;;4968514;28;35621;-78
2022/05/02 04:50:17;;;;;;;14.10;8.68;;;6.90;31.80;;;;;;4968405;28;34370;-78
2022/05/02 04:52:43;;;;;;;15.88;9.85;;;6.90;31.80;;;;;;4986953;28;34077;-78
2022/05/02 04:55:09;;;;;;;13.63;9.90;;;6.90;31.70;;;;;;4973150;28;34120;-78
2022/05/02 04:57:35;;;;;;;11.77;9.35;;;7.00;31.70;;;;;;4968152;28;36262;-78
2022/05/02 05:00:02;;;;;;;13.43;9.60;;;7.10;31.70;;;;;;4974837;28;34111;-78
2022/05/02 05:02:29;;;;;;;11.07;9.25;;;7.20;31.70;;;;;;4987292;28;34116;-78
2022/05/02 05:04:55;;;;;;;12.98;9.55;;;7.30;31.70;;;;;;5005184;28;34251;-79
2022/05/02 05:07:21;;;;;;;13.90;9.82;;;7.40;31.70;;;;;;4971334;28;36579;-78
2022/05/02 05:09:49;;;;;;;15.88;10.80;;;7.50;31.60;;;;;;4986601;28;34240;-78
2022/05/02 05:12:37;;;;;;;14.70;10.77;;;7.60;31.30;;;;;;4994232;28;34147;-78
2022/05/02 05:18:43;;;;;;;16.75;11.40;;;8.10;33.40;;;;;;5004301;28;34392;-78
2022/05/02 05:21:26;;;;;;;15.35;10.85;;;8.40;33.40;;;;;;5005338;28;34101;-78
2022/05/02 05:24:23;;;;;;;14.77;10.85;;;8.60;30.50;;;;;;4987490;28;34362;-78
2022/05/02 05:27:17;;;;;;;17.48;11.45;;;8.80;32.30;;;;;;4987979;28;34170;-79
2022/05/02 05:30:02;;;;;;;15.40;10.10;;;8.90;32.90;;;;;;4974571;28;35945;-77
2022/05/02 05:32:39;;;;;;;16.85;11.02;;;9.10;32.00;;;;;;4975888;28;34425;-78
2022/05/02 05:35:09;;;;;;;15.25;10.63;;;9.20;29.90;;;;;;4987554;28;34036;-78
2022/05/02 05:38:05;;;;;;;16.83;10.65;;;9.30;30.40;;;;;;4987632;28;34260;-78
2022/05/02 05:40:42;;;;;;;15.75;10.88;;;9.50;31.30;;;;;;5003863;28;34347;-78
2022/05/02 05:43:37;;;;;;;15.05;10.80;;;9.70;30.10;;;;;;4987127;28;34116;-78
2022/05/02 05:46:19;;;;;;;15.85;10.57;;;9.90;31.30;;;;;;4987030;28;34080;-78
2022/05/02 05:49:12;;;;;;;16.17;10.55;;;10.10;30.00;;;;;;5003925;28;34169;-78
2022/05/02 05:51:52;;;;;;;17.60;11.48;;;10.40;30.80;;;;;;5003098;28;36216;-78
2022/05/02 05:54:46;;;;;;;17.67;11.75;;;10.70;29.50;;;;;;5003129;28;34092;-78
2022/05/02 05:57:27;;;;;;;17.23;12.40;;;11.10;29.40;;;;;;5003863;28;34164;-78
2022/05/02 06:00:05;;;;;;;15.93;11.50;;;11.60;27.90;;;;;;4988604;28;34097;-78
2022/05/02 06:02:53;;;;;;;18.63;11.65;;;12.10;26.50;;;;;;5003443;28;36353;-79
2022/05/02 06:05:20;;;;;;;15.65;10.65;;;12.80;25.10;;;;;;5004190;28;34145;-78
2022/05/02 06:07:47;;;;;;;21.05;12.32;;;13.40;23.10;;;;;;5003879;28;34138;-79
2022/05/02 06:10:16;;;;;;;16.77;12.05;;;14.10;22.00;;;;;;5003420;28;34129;-79
2022/05/02 06:12:44;;;;;;;16.85;11.60;;;14.60;20.80;;;;;;4997821;28;34430;-79
2022/05/02 06:20:39;;;;;;;14.75;10.07;;;16.30;18.60;;;;;;4970632;28;34052;-79
2022/05/02 06:23:13;;;;;;;13.13;9.80;;;16.90;18.00;;;;;;5003236;28;34244;-79
2022/05/02 06:25:41;;;;;;;14.20;10.55;;;17.30;17.10;;;;;;4971842;28;34433;-78
2022/05/02 06:28:08;;;;;;;12.95;10.27;;;17.60;16.60;;;;;;4987521;28;34106;-79
2022/05/02 06:30:39;;;;;;;14.13;10.52;;;17.70;16.30;;;;;;5005202;28;34281;-80
2022/05/02 06:33:11;;;;;;;14.30;10.05;;;17.90;15.40;;;;;;5003628;28;35073;-79
2022/05/02 06:35:50;;;;;;;13.98;10.00;;;18.00;14.90;;;;;;5008800;28;34130;-76
2022/05/02 06:38:38;;;;;;;13.73;9.30;;;18.20;14.60;;;;;;5009057;28;34167;-77
2022/05/02 06:41:20;;;;;;;12.15;9.40;;;18.20;13.20;;;;;;4984882;28;34464;-77
2022/05/02 06:44:13;;;;;;;12.80;8.43;;;18.40;14.00;;;;;;4991956;28;35532;-77
2022/05/02 06:47:00;;;;;;;14.50;10.15;;;18.50;13.10;;;;;;4972918;28;34049;-77
2022/05/02 06:49:26;;;;;;;12.82;9.93;;;18.70;13.30;;;;;;4979405;28;34110;-76
2022/05/02 06:51:57;;;;;;;13.73;9.65;;;18.70;14.90;;;;;;4992777;28;34478;-77
2022/05/02 06:54:42;;;;;;;16.40;10.05;;;19.00;14.20;;;;;;4960055;28;36750;-77
2022/05/02 06:57:22;;;;;;;13.77;9.77;;;19.20;13.60;;;;;;4995710;28;34415;-78
2022/05/02 07:00:06;;;;;;;12.88;9.48;;;19.60;14.10;;;;;;4963313;28;34152;-77
2022/05/02 07:02:52;;;;;;;9.75;8.40;;;20.00;12.70;;;;;;4972903;28;34226;-76
2022/05/02 07:05:27;;;;;;;11.73;8.27;;;19.90;13.10;;;;;;4987678;28;36396;-76
2022/05/02 07:08:11;;;;;;;13.10;8.25;;;20.10;12.20;;;;;;4972912;28;34571;-77
2022/05/02 07:10:39;;;;;;;10.48;8.07;;;20.00;11.50;;;;;;4972601;28;34209;-76
2022/05/02 07:13:30;;;;;;;10.57;7.75;;;20.00;13.70;;;;;;4990425;28;34386;-77
2022/05/02 07:16:22;;;;;;;11.27;7.38;;;20.30;11.10;;;;;;4977279;28;35685;-77
2022/05/02 07:19:13;;;;;;;9.70;7.32;;;20.50;12.70;;;;;;4971254;28;34075;-77
2022/05/02 07:21:56;;;;;;;8.57;6.57;;;20.70;12.40;;;;;;4988145;28;34190;-76
2022/05/02 07:24:41;;;;;;;8.32;6.80;;;20.90;11.80;;;;;;4972810;28;33989;-77
2022/05/02 07:27:32;;;;;;;8.68;6.45;;;20.90;11.70;;;;;;4972361;28;35751;-77
2022/05/02 07:29:59;;;;;;;10.82;7.38;;;21.00;12.00;;;;;;4973147;28;34376;-76
2022/05/02 07:32:26;;;;;;;9.57;6.97;;;20.90;13.90;;;;;;5009812;28;34248;-76
2022/05/02 07:34:54;;;;;;;8.18;6.00;;;20.80;14.10;;;;;;4972905;28;34471;-77
2022/05/02 07:37:22;;;;;;;10.07;6.35;;;20.90;13.90;;;;;;4972838;28;36001;-77
2022/05/02 07:39:50;;;;;;;10.68;6.88;;;21.00;13.90;;;;;;4972563;28;34249;-76
2022/05/02 07:42:18;;;;;;;7.85;6.07;;;21.00;13.30;;;;;;4972784;28;34340;-77
2022/05/02 07:44:47;;;;;;;13.45;6.75;;;21.00;13.90;;;;;;5008746;28;34221;-77
2022/05/02 07:47:15;;;;;;;6.60;5.95;;;21.00;13.60;;;;;;4971752;28;36553;-77
2022/05/02 07:49:46;;;;;;;9.07;6.50;;;20.90;13.60;;;;;;4988938;28;34246;-77
2022/05/02 07:52:16;;;;;;;8.82;6.00;;;20.80;13.30;;;;;;4972505;28;34330;-77
2022/05/02 07:54:46;;;;;;;8.98;6.03;;;20.80;12.10;;;;;;4972125;28;34087;-77
2022/05/02 07:57:14;;;;;;;7.57;5.72;;;20.90;13.50;;;;;;4937329;28;36721;-77
2022/05/02 07:59:41;;;;;;;6.63;5.38;;;21.00;13.50;;;;;;4982810;28;34162;-77
2022/05/02 08:02:08;;;;;;;9.35;5.20;;;21.20;13.50;;;;;;4960826;28;34113;-77
2022/05/02 08:04:37;;;;;;;8.38;5.40;;;21.30;13.30;;;;;;4937002;28;34156;-77
2022/05/02 08:07:11;;;;;;;7.88;5.53;;;21.30;12.90;;;;;;4969826;28;35802;-77
2022/05/02 08:10:12;;;;;;;8.70;5.22;;;21.40;12.10;;;;;;4957094;28;34525;-76
2022/05/02 08:12:40;;;;;;;7.93;5.43;;;21.50;9.50;;;;;;4976861;28;34264;-78
2022/05/02 08:15:32;;;;;;;7.15;5.32;;;21.60;12.70;;;;;;4988900;28;34515;-78
2022/05/02 08:18:28;;;;;;;7.10;5.13;;;21.70;9.60;;;;;;4972234;28;36549;-77
2022/05/02 08:21:07;;;;;;;7.38;6.10;;;21.90;9.80;;;;;;4988360;28;34177;-76
2022/05/02 08:27:15;;;;;;;9.05;5.55;;;21.90;8.00;;;;;;4990998;28;34077;-77
2022/05/02 08:30:07;;;;;;;7.78;5.60;;;22.00;10.90;;;;;;4975125;28;35681;-77
2022/05/02 08:32:57;;;;;;;8.82;5.22;;;22.20;9.30;;;;;;4986406;28;34194;-78
2022/05/02 08:35:58;;;;;;;9.68;5.90;;;22.30;8.90;;;;;;4957875;28;34211;-77
2022/05/02 08:38:44;;;;;;;7.07;5.40;;;22.40;9.70;;;;;;4982690;28;34143;-77
2022/05/02 08:41:40;;;;;;;6.10;5.50;;;22.40;9.50;;;;;;4969295;28;34494;-77
2022/05/02 08:44:36;;;;;;;8.18;5.75;;;22.40;10.10;;;;;;4993489;28;33672;-77
2022/05/02 08:47:34;;;;;;;7.95;6.00;;;22.70;9.00;;;;;;4986217;28;34302;-76
2022/05/02 08:50:31;;;;;;;6.63;5.55;;;22.90;9.00;;;;;;4954763;28;34544;-77
2022/05/02 08:56:33;;;;;;;7.90;6.03;;;23.30;9.60;;;;;;4990074;28;34461;-76
2022/05/02 08:59:27;;;;;;;6.93;5.50;;;23.40;8.10;;;;;;4988152;28;34207;-75
2022/05/02 09:02:28;;;;;;;8.18;5.60;;;23.30;6.50;;;;;;4971312;28;35578;-79
2022/05/02 09:05:19;;;;;;;7.45;6.20;;;23.40;7.80;;;;;;4973027;28;36236;-77
2022/05/02 09:08:15;;;;;;;7.80;5.68;;;23.50;8.20;;;;;;4974026;28;34162;-77
2022/05/02 09:14:40;;;;;;;9.63;5.75;;;23.60;7.40;;;;;;4991873;28;34174;-77
2022/05/02 09:17:41;;;;;;;9.25;5.50;;;23.70;6.00;;;;;;4959329;28;35651;-77
2022/05/02 09:20:42;;;;;;;6.97;5.47;;;23.60;7.00;;;;;;4980049;28;34264;-78
2022/05/02 09:23:41;;;;;;;8.27;5.97;;;23.50;7.00;;;;;;4951596;28;34211;-77
2022/05/02 09:26:42;;;;;;;6.78;5.20;;;23.60;8.10;;;;;;4959758;28;34456;-78
2022/05/02 09:29:38;;;;;;;6.32;5.18;;;23.80;7.30;;;;;;4972008;28;36592;-78
2022/05/02 09:32:16;;;;;;;10.95;5.60;;;23.90;6.70;;;;;;4979038;28;34253;-77
2022/05/02 09:35:03;;;;;;;9.27;5.53;;;24.20;8.40;;;;;;4961484;28;34404;-77
2022/05/02 09:37:39;;;;;;;5.88;5.22;;;24.10;7.20;;;;;;4963143;28;34281;-78
2022/05/02 09:40:12;;;;;;;6.20;4.93;;;23.90;6.70;;;;;;4979127;28;35963;-77
2022/05/02 09:43:08;;;;;;;7.53;5.38;;;23.70;8.10;;;;;;4976627;28;34570;-77
2022/05/02 09:52:06;;;;;;;6.88;4.93;;;23.80;5.40;;;;;;4983510;28;34411;-77
2022/05/02 09:57:58;;;;;;;8.68;5.20;;;23.10;6.80;;;;;;5000630;28;34187;-76
2022/05/02 10:03:24;;;;;;;6.88;4.45;;;23.20;8.60;;;;;;4979972;28;34261;-75
2022/05/02 10:06:04;;;;;;;9.38;4.68;;;23.60;7.60;;;;;;4971609;28;34176;-78
2022/05/02 10:08:54;;;;;;;6.40;4.63;;;23.40;7.20;;;;;;4970879;28;34509;-76
2022/05/02 10:11:35;;;;;;;6.72;4.78;;;23.40;6.10;;;;;;5003553;28;34073;-76
2022/05/02 10:14:26;;;;;;;6.70;4.47;;;23.20;6.70;;;;;;4983145;28;35910;-77
2022/05/02 10:17:00;;;;;;;5.32;4.38;;;23.00;6.30;;;;;;4968176;28;34650;-77
2022/05/02 10:19:57;;;;;;;5.88;4.20;;;22.90;7.70;;;;;;4977544;28;35348;-77
2022/05/02 10:22:58;;;;;;;5.45;4.38;;;22.90;6.90;;;;;;4981668;28;34416;-76
2022/05/02 10:25:39;;;;;;;4.95;4.13;;;22.70;7.10;;;;;;4971392;28;36524;-77
2022/05/02 10:28:25;;;;;;;5.40;4.10;;;22.80;6.50;;;;;;4983262;28;34299;-77
2022/05/02 10:31:09;;;;;;;5.07;3.88;;;23.10;7.80;;;;;;4985808;28;34478;-78
2022/05/02 10:33:44;;;;;;;5.88;4.32;;;23.50;7.90;;;;;;4984908;28;34211;-77
2022/05/02 10:36:11;;;;;;;6.25;4.22;;;24.10;6.90;;;;;;4981880;28;35910;-76
2022/05/02 10:38:51;;;;;;;4.28;3.80;;;24.40;7.50;;;;;;4993759;28;34147;-78
2022/05/02 10:41:37;;;;;;;5.03;3.80;;;24.90;5.10;;;;;;4980328;28;34022;-76
2022/05/02 10:44:05;;;;;;;4.43;3.80;;;25.20;3.30;;;;;;4987979;28;34240;-78
2022/05/02 10:46:32;;;;;;;5.35;3.75;;;25.40;5.10;;;;;;4968303;28;35993;-79
2022/05/02 10:49:16;;;;;;;6.32;4.13;;;25.20;6.10;;;;;;4985081;28;34364;-75
2022/05/02 10:51:58;;;;;;;5.10;3.83;;;25.30;1.70;;;;;;4986259;28;34191;-78
2022/05/02 10:54:41;;;;;;;5.22;3.85;;;25.40;3.10;;;;;;4969802;28;34191;-77
2022/05/02 10:57:38;;;;;;;4.93;3.80;;;25.40;1.30;;;;;;4979888;28;36759;-78
2022/05/02 11:00:09;;;;;;;5.50;3.63;;;25.50;1.60;;;;;;4987883;28;34190;-77
2022/05/02 11:03:01;;;;;;;4.88;3.65;;;25.50;4.40;;;;;;4959058;28;34770;-78
2022/05/02 11:05:36;;;;;;;8.93;3.55;;;25.30;2.10;;;;;;4977330;28;34402;-76
2022/05/02 11:08:22;;;;;;;4.13;3.50;;;25.10;5.10;;;;;;4965456;28;36399;-78
2022/05/02 11:10:57;;;;;;;4.97;2.88;;;25.20;1.10;;;;;;4983525;28;34181;-78
2022/05/02 11:13:45;;;;;;;4.95;3.60;;;25.30;3.50;;;;;;4978458;28;34623;-76
2022/05/02 11:16:37;;;;;;;3.95;3.10;;;25.50;1.00;;;;;;4986342;28;34302;-78
2022/05/02 11:22:30;;;;;;;4.20;3.20;;;25.50;1.40;;;;;;4995735;28;34427;-78
2022/05/02 11:25:09;;;;;;;4.47;3.10;;;25.40;1.10;;;;;;4984597;28;34251;-77
2022/05/02 11:27:46;;;;;;;3.83;3.30;;;25.50;2.10;;;;;;4981112;28;34452;-77
2022/05/02 11:30:18;;;;;;;43.72;15.00;;;25.70;3.10;;;;;;4980698;28;36855;-78
2022/05/02 11:33:02;;;;;;;5.88;3.40;;;25.80;3.80;;;;;;4976294;28;34072;-78
2022/05/02 11:35:33;;;;;;;4.75;3.20;;;25.60;2.30;;;;;;4980104;28;34308;-77
2022/05/02 11:38:22;;;;;;;3.33;3.03;;;25.30;2.80;;;;;;4996886;28;34067;-77
2022/05/02 11:40:51;;;;;;;3.58;3.10;;;25.10;3.50;;;;;;4988082;28;35616;-78
2022/05/02 11:43:22;;;;;;;3.63;3.00;;;25.10;3.80;;;;;;4974476;28;34369;-77
2022/05/02 11:46:12;;;;;;;5.88;3.15;;;25.10;2.80;;;;;;4988550;28;34285;-78
2022/05/02 11:48:52;;;;;;;3.28;2.90;;;25.10;1.90;;;;;;4980561;28;34121;-77
2022/05/02 11:51:43;;;;;;;4.20;3.05;;;25.10;1.90;;;;;;4979885;28;35700;-77
2022/05/02 11:54:34;;;;;;;5.18;3.55;;;25.00;1.70;;;;;;4980048;28;34472;-78
2022/05/02 11:57:18;;;;;;;5.10;3.20;;;24.70;3.10;;;;;;4970743;28;34151;-77
2022/05/02 12:00:05;;;;;;;4.50;3.55;;;24.50;3.20;;;;;;4988502;28;34620;-78
2022/05/02 12:02:42;;;;;;;3.90;3.60;;;24.30;3.20;;;;;;4969136;28;35701;-78
2022/05/02 12:05:25;;;;;;;5.55;3.50;;;24.20;3.10;;;;;;4969138;28;34210;-77
2022/05/02 12:07:54;;;;;;;5.65;3.30;;;24.10;2.90;;;;;;4988603;28;34314;-76
2022/05/02 12:10:37;;;;;;;5.28;3.55;;;24.20;4.70;;;;;;4985801;28;34297;-76
2022/05/02 12:13:05;;;;;;;5.13;3.53;;;24.30;4.20;;;;;;4974266;28;35870;-77
2022/05/02 12:15:31;;;;;;;4.15;3.60;;;24.50;4.40;;;;;;4980139;28;34317;-77
2022/05/02 12:18:03;;;;;;;5.35;3.28;;;24.70;3.60;;;;;;4979542;28;34196;-76
2022/05/02 12:20:36;;;;;;;4.63;3.28;;;24.90;4.00;;;;;;4980473;28;34581;-77
2022/05/02 12:23:06;;;;;;;3.92;3.28;;;25.20;3.50;;;;;;4991161;28;34341;-76
2022/05/02 12:25:33;;;;;;;4.13;3.35;;;25.30;2.80;;;;;;4964621;28;34370;-77
2022/05/02 12:28:03;;;;;;;3.67;3.20;;;25.10;3.80;;;;;;4983889;28;34217;-77
2022/05/02 12:30:31;;;;;;;4.85;3.35;;;25.00;3.90;;;;;;4990631;28;34314;-77
2022/05/02 12:33:00;;;;;;;4.00;3.28;;;24.80;3.60;;;;;;4964008;28;35595;-76
2022/05/02 12:35:35;;;;;;;4.05;3.53;;;24.50;2.50;;;;;;4982597;28;34242;-77
2022/05/02 12:38:11;;;;;;;3.72;3.30;;;24.30;1.10;;;;;;4966424;28;35610;-77
2022/05/02 12:40:40;;;;;;;5.55;3.85;;;24.20;2.30;;;;;;4986921;28;34205;-78
2022/05/02 12:43:11;;;;;;;3.80;3.33;;;24.00;3.30;;;;;;4996957;28;34467;-77
2022/05/02 12:45:46;;;;;;;6.07;3.50;;;23.90;4.20;;;;;;4979505;28;34471;-78
2022/05/02 12:48:23;;;;;;;4.25;3.35;;;24.00;3.90;;;;;;4966195;28;34299;-76
2022/05/02 12:50:51;;;;;;;3.85;3.28;;;24.20;2.60;;;;;;4984371;28;34385;-77
2022/05/02 12:54:09;;;;;;;4.00;3.28;;;24.50;3.90;;;;;;4979709;28;36696;-76
2022/05/02 12:56:09;;;;;;;3.10;2.72;;;24.90;2.50;;;;;;4981570;28;34302;-78
2022/05/02 13:01:22;;;;;;;4.57;2.92;;;24.90;3.10;;;;;;4980164;28;34053;-78
2022/05/02 13:03:55;;;;;;;3.40;3.10;;;24.70;2.70;;;;;;4996630;28;34132;-78
2022/05/02 13:06:21;;;;;;;3.50;3.20;;;24.50;2.30;;;;;;4981565;28;34257;-78
2022/05/02 13:08:48;;;;;;;3.10;2.90;;;24.40;3.50;;;;;;4984346;28;34299;-78
2022/05/02 13:11:25;;;;;;;3.17;2.88;;;24.20;3.60;;;;;;4998072;28;34384;-78
2022/05/02 13:13:54;;;;;;;3.08;2.70;;;24.20;2.80;;;;;;4968447;28;35844;-77
2022/05/02 13:16:34;;;;;;;3.67;3.33;;;24.00;3.90;;;;;;4965283;28;34364;-78
2022/05/02 13:19:03;;;;;;;6.88;2.90;;;23.90;1.80;;;;;;4990613;28;34516;-78
2022/05/02 13:21:30;;;;;;;4.57;3.03;;;23.90;4.10;;;;;;4979344;28;34441;-78
2022/05/02 13:24:01;;;;;;;4.35;2.97;;;23.80;4.00;;;;;;4984411;28;35859;-78
2022/05/02 13:26:44;;;;;;;4.43;3.30;;;23.80;3.50;;;;;;4989703;28;34379;-79
2022/05/02 13:29:35;;;;;;;4.05;2.78;;;24.00;4.40;;;;;;4969950;28;34226;-78
2022/05/02 13:32:07;;;;;;;3.25;2.88;;;24.00;3.00;;;;;;4986237;28;34239;-79
2022/05/02 13:34:51;;;;;;;3.58;2.92;;;24.10;3.00;;;;;;4981539;28;35856;-79
2022/05/02 13:37:48;;;;;;;3.58;3.08;;;24.30;3.20;;;;;;4977361;28;34391;-78
2022/05/02 13:40:18;;;;;;;3.53;3.10;;;24.60;2.20;;;;;;4960408;28;34127;-78
2022/05/02 13:42:57;;;;;;;4.95;3.58;;;24.90;3.20;;;;;;4985764;28;34364;-77
2022/05/02 13:45:46;;;;;;;4.43;3.65;;;25.10;1.10;;;;;;4967134;28;35601;-75
2022/05/02 13:48:30;;;;;;;4.22;3.60;;;25.10;1.00;;;;;;4951733;28;34125;-77
2022/05/02 13:51:08;;;;;;;3.03;2.83;;;25.00;2.00;;;;;;4970723;28;34033;-78
2022/05/02 13:53:51;;;;;;;3.25;2.90;;;24.90;1.00;;;;;;4987492;28;34373;-79
2022/05/02 13:56:38;;;;;;;5.00;3.13;;;25.00;2.20;;;;;;4983450;28;35519;-77
2022/05/02 13:59:20;;;;;;;3.22;2.85;;;25.20;1.00;;;;;;4984668;28;34230;-78
2022/05/02 14:02:16;;;;;;;4.05;2.50;;;25.20;1.00;;;;;;4980386;28;34471;-78
2022/05/02 14:04:50;;;;;;;2.67;2.47;;;25.20;1.00;;;;;;4988522;28;34127;-78